Time;durP1;ratioP1;P1;durP2;ratioP2;P2;SDS_P1;SDS_P2;PMS_P1;PMS_P2;Temp;Humidity;BMP_temperature;BMP_pressure;BME280_temperature;BME280_humidity;BME280_pressure;Samples;Min_cycle;Max_cycle;Signal;HPM_P1;HPM_P2
2023/01/09 00:01:41;;;;;;;2.38;1.90;;;6.90;99.90;;;;;;5113763;28;20172;-51
2023/01/09 00:04:13;;;;;;;2.67;1.70;;;6.80;99.90;;;;;;5113768;28;20229;-52
2023/01/09 00:06:42;;;;;;;3.97;1.75;;;6.80;99.90;;;;;;5113781;28;20561;-52
2023/01/09 00:09:09;;;;;;;5.35;2.17;;;6.80;99.90;;;;;;5113546;28;20183;-51
2023/01/09 00:11:38;;;;;;;4.47;1.73;;;6.80;99.90;;;;;;5113902;28;20186;-54
2023/01/09 00:14:04;;;;;;;4.40;2.30;;;6.70;99.90;;;;;;5113674;28;20180;-52
2023/01/09 00:16:30;;;;;;;6.03;2.25;;;6.60;99.90;;;;;;5113564;28;20169;-54
2023/01/09 00:18:59;;;;;;;4.32;2.17;;;6.60;99.90;;;;;;5113751;28;20169;-51
2023/01/09 00:21:29;;;;;;;4.80;2.15;;;6.70;99.90;;;;;;5113693;28;20180;-54
2023/01/09 00:23:54;;;;;;;4.03;2.25;;;6.60;99.90;;;;;;5113616;28;20170;-55
2023/01/09 00:26:21;;;;;;;5.07;2.28;;;6.70;99.90;;;;;;5113511;28;20260;-54
2023/01/09 00:28:53;;;;;;;5.88;3.50;;;6.60;99.90;;;;;;5113552;28;20180;-54
2023/01/09 00:31:22;;;;;;;4.53;2.95;;;6.60;99.90;;;;;;5114069;28;20561;-55
2023/01/09 00:33:52;;;;;;;5.10;3.50;;;6.60;99.90;;;;;;5114350;28;20564;-54
2023/01/09 00:36:20;;;;;;;4.85;3.13;;;6.70;99.90;;;;;;5117815;28;20177;-53
2023/01/09 00:38:46;;;;;;;4.20;2.35;;;6.60;99.90;;;;;;5116320;28;20519;-54
2023/01/09 00:41:17;;;;;;;4.40;2.80;;;6.60;99.90;;;;;;5117630;28;20184;-54
2023/01/09 00:43:54;;;;;;;5.07;2.83;;;6.60;99.90;;;;;;5117569;28;20200;-53
2023/01/09 00:46:24;;;;;;;3.35;2.35;;;6.60;99.90;;;;;;5117592;28;20203;-52
2023/01/09 00:48:56;;;;;;;4.88;2.05;;;6.60;99.90;;;;;;5117532;28;20184;-52
2023/01/09 00:51:23;;;;;;;2.55;2.17;;;6.60;99.90;;;;;;5117402;28;20168;-52
2023/01/09 00:53:49;;;;;;;5.80;2.22;;;6.50;99.90;;;;;;5116427;28;20558;-52
2023/01/09 00:56:18;;;;;;;4.90;2.35;;;6.50;99.90;;;;;;5117839;28;20177;-53
2023/01/09 00:58:45;;;;;;;3.45;1.85;;;6.40;99.90;;;;;;5117409;28;20172;-54
2023/01/09 01:01:13;;;;;;;3.33;2.13;;;6.40;99.90;;;;;;5117228;28;20173;-51
2023/01/09 01:03:39;;;;;;;3.78;2.38;;;6.40;99.90;;;;;;5117445;27;20177;-51
2023/01/09 01:08:49;;;;;;;5.05;2.35;;;6.40;99.90;;;;;;5117342;28;20184;-53
2023/01/09 01:11:15;;;;;;;5.35;2.28;;;6.30;99.90;;;;;;5117006;28;20181;-51
2023/01/09 01:13:45;;;;;;;4.40;2.28;;;6.40;99.90;;;;;;5116972;28;20180;-50
2023/01/09 01:16:12;;;;;;;4.53;2.20;;;6.40;99.90;;;;;;5116049;28;20177;-53
2023/01/09 01:18:38;;;;;;;4.82;2.33;;;6.40;99.90;;;;;;5116835;27;20702;-54
2023/01/09 01:21:14;;;;;;;5.10;2.10;;;6.50;99.90;;;;;;5116748;28;20173;-53
2023/01/09 01:23:41;;;;;;;3.88;2.10;;;6.40;99.90;;;;;;5116826;27;20654;-52
2023/01/09 01:26:13;;;;;;;4.30;2.22;;;6.40;99.90;;;;;;5116777;28;20208;-53
2023/01/09 01:28:39;;;;;;;5.03;1.98;;;6.40;99.90;;;;;;5116750;28;20576;-51
2023/01/09 01:31:06;;;;;;;3.47;2.03;;;6.40;99.90;;;;;;5116538;28;20168;-52
2023/01/09 01:33:32;;;;;;;3.45;1.90;;;6.40;99.90;;;;;;5116502;28;20289;-55
2023/01/09 01:36:06;;;;;;;4.60;2.13;;;6.50;99.90;;;;;;5116678;28;20181;-52
2023/01/09 01:38:33;;;;;;;3.92;2.08;;;6.50;99.90;;;;;;5116362;28;20175;-53
2023/01/09 01:41:01;;;;;;;5.13;1.98;;;6.50;99.90;;;;;;5116595;28;20187;-52
2023/01/09 01:43:29;;;;;;;5.18;2.10;;;6.40;99.90;;;;;;5116240;28;20168;-51
2023/01/09 01:45:55;;;;;;;4.57;2.00;;;6.40;99.90;;;;;;5114930;28;20209;-52
2023/01/09 01:48:27;;;;;;;5.53;1.90;;;6.30;99.90;;;;;;5116442;28;20182;-54
2023/01/09 01:51:01;;;;;;;5.90;2.00;;;6.40;99.90;;;;;;5116194;28;20581;-52
2023/01/09 01:53:40;;;;;;;6.13;1.85;;;6.40;99.90;;;;;;5116304;27;20181;-51
2023/01/09 01:56:24;;;;;;;4.38;1.98;;;6.40;99.90;;;;;;5116169;28;20178;-54
2023/01/09 01:59:12;;;;;;;6.55;1.92;;;6.40;99.90;;;;;;5116245;28;20177;-52
2023/01/09 02:01:41;;;;;;;4.20;2.17;;;6.40;99.90;;;;;;5116133;28;20165;-50
2023/01/09 02:04:08;;;;;;;6.00;2.65;;;6.50;99.90;;;;;;5115978;28;20165;-54
2023/01/09 02:06:34;;;;;;;4.03;2.00;;;6.50;99.90;;;;;;5115853;28;20204;-54
2023/01/09 02:09:03;;;;;;;4.47;2.15;;;6.50;99.90;;;;;;5115811;28;20308;-53
2023/01/09 02:11:29;;;;;;;4.80;1.90;;;6.60;99.90;;;;;;5116019;28;20177;-51
2023/01/09 02:13:59;;;;;;;5.40;1.98;;;6.60;99.90;;;;;;5115883;28;20170;-51
2023/01/09 02:16:58;;;;;;;4.43;1.95;;;6.60;99.90;;;;;;5115729;28;20267;-52
2023/01/09 02:19:53;;;;;;;4.40;1.83;;;6.60;99.90;;;;;;5115616;28;20579;-53
2023/01/09 02:22:27;;;;;;;4.18;1.77;;;6.70;99.90;;;;;;5115711;28;20188;-53
2023/01/09 02:25:10;;;;;;;6.70;2.22;;;6.70;99.90;;;;;;5115477;28;20195;-53
2023/01/09 02:28:41;;;;;;;4.80;1.73;;;6.70;99.90;;;;;;5115519;28;20234;-53
2023/01/09 02:31:18;;;;;;;6.40;1.70;;;6.80;99.90;;;;;;5052543;28;20182;-54
2023/01/09 02:34:02;;;;;;;4.60;1.70;;;6.90;99.90;;;;;;5106868;28;20185;-51
2023/01/09 02:36:35;;;;;;;2.72;1.65;;;6.80;99.90;;;;;;5115519;28;20559;-54
2023/01/09 02:39:13;;;;;;;4.82;1.77;;;6.80;99.90;;;;;;5115243;28;20168;-54
2023/01/09 02:41:57;;;;;;;2.90;1.83;;;6.90;99.90;;;;;;5115261;28;20207;-54
2023/01/09 02:44:28;;;;;;;6.32;1.80;;;6.90;99.90;;;;;;5114781;28;20523;-54
2023/01/09 02:47:24;;;;;;;3.97;2.08;;;6.90;99.90;;;;;;5115329;28;20641;-54
2023/01/09 02:50:02;;;;;;;7.78;3.20;;;7.00;99.90;;;;;;5114928;28;20633;-54
2023/01/09 02:52:46;;;;;;;7.70;2.08;;;6.90;99.90;;;;;;5114864;28;20169;-54
2023/01/09 02:55:30;;;;;;;5.88;2.03;;;7.00;99.90;;;;;;5115176;28;20181;-51
2023/01/09 02:58:08;;;;;;;4.50;1.83;;;7.10;99.90;;;;;;5114530;28;20679;-51
2023/01/09 03:00:55;;;;;;;6.00;1.85;;;7.10;99.90;;;;;;5114859;28;20191;-53
2023/01/09 03:04:01;;;;;;;3.30;1.55;;;7.10;99.90;;;;;;5115052;28;20176;-51
2023/01/09 03:06:48;;;;;;;3.03;1.35;;;7.20;99.90;;;;;;5114802;28;20204;-54
2023/01/09 03:09:21;;;;;;;2.42;1.17;;;7.30;99.90;;;;;;5114560;28;20180;-55
2023/01/09 03:11:59;;;;;;;4.68;1.95;;;7.20;99.90;;;;;;5114771;28;20187;-54
2023/01/09 03:14:26;;;;;;;8.20;1.88;;;7.20;99.90;;;;;;5114831;28;20614;-53
2023/01/09 03:16:58;;;;;;;5.65;2.08;;;7.20;99.90;;;;;;5114738;28;20622;-55
2023/01/09 03:19:28;;;;;;;6.38;1.60;;;7.30;99.90;;;;;;5114409;28;20169;-54
2023/01/09 03:21:55;;;;;;;5.55;1.83;;;7.30;99.90;;;;;;5114466;28;20217;-52
2023/01/09 03:24:20;;;;;;;5.90;1.77;;;7.30;99.90;;;;;;5114496;28;20249;-50
2023/01/09 03:26:46;;;;;;;6.15;1.70;;;7.40;99.90;;;;;;5114483;28;20685;-54
2023/01/09 03:29:12;;;;;;;5.35;1.75;;;7.30;99.90;;;;;;5114429;28;20173;-51
2023/01/09 03:31:38;;;;;;;5.10;1.98;;;7.30;99.90;;;;;;5114172;28;20173;-54
2023/01/09 03:34:03;;;;;;;4.97;2.05;;;7.30;99.90;;;;;;5113708;28;20200;-54
2023/01/09 03:36:29;;;;;;;7.68;2.08;;;7.30;99.90;;;;;;5113691;28;20180;-51
2023/01/09 03:38:58;;;;;;;4.15;1.30;;;7.30;99.90;;;;;;5114185;28;20196;-54
2023/01/09 03:41:24;;;;;;;6.15;1.83;;;7.30;99.90;;;;;;5114218;28;20225;-54
2023/01/09 03:43:54;;;;;;;5.55;1.60;;;7.20;99.90;;;;;;5114184;28;20213;-53
2023/01/09 03:46:19;;;;;;;7.75;2.28;;;7.20;99.90;;;;;;5114094;28;20216;-52
2023/01/09 03:48:46;;;;;;;4.65;1.63;;;7.30;99.90;;;;;;5113843;28;20214;-54
2023/01/09 03:51:15;;;;;;;6.50;1.50;;;7.30;99.90;;;;;;5114145;28;20170;-54
2023/01/09 03:53:41;;;;;;;4.18;1.70;;;7.40;99.90;;;;;;5114106;28;20187;-52
2023/01/09 03:56:06;;;;;;;6.18;1.55;;;7.40;99.90;;;;;;5114014;28;20184;-53
2023/01/09 03:58:38;;;;;;;5.32;1.80;;;7.50;99.90;;;;;;5113900;28;20177;-54
2023/01/09 04:01:08;;;;;;;7.38;1.88;;;7.40;99.90;;;;;;5113897;28;20200;-54
2023/01/09 04:03:34;;;;;;;7.88;1.70;;;7.50;99.90;;;;;;5113637;28;20208;-53
2023/01/09 04:05:59;;;;;;;5.30;1.83;;;7.30;99.90;;;;;;5113895;28;20241;-52
2023/01/09 04:08:29;;;;;;;4.25;2.13;;;7.40;99.90;;;;;;5113142;28;20212;-56
2023/01/09 04:10:55;;;;;;;5.80;1.92;;;7.50;99.90;;;;;;5113708;28;20177;-53
2023/01/09 04:13:21;;;;;;;5.93;2.20;;;7.50;99.90;;;;;;5113621;28;20177;-53
2023/01/09 04:15:49;;;;;;;6.55;1.95;;;7.50;99.90;;;;;;5113591;28;20177;-53
2023/01/09 04:18:18;;;;;;;6.65;1.90;;;7.40;99.90;;;;;;5113713;28;20260;-53
2023/01/09 04:20:46;;;;;;;5.13;1.77;;;7.30;99.90;;;;;;5113769;28;20168;-53
2023/01/09 04:23:15;;;;;;;7.63;2.15;;;7.30;99.90;;;;;;5113739;28;20170;-54
2023/01/09 04:25:48;;;;;;;7.13;2.60;;;7.40;99.90;;;;;;5113503;28;20200;-53
2023/01/09 04:28:14;;;;;;;4.22;1.92;;;7.40;99.90;;;;;;5113642;28;20243;-53
2023/01/09 04:30:40;;;;;;;5.60;2.13;;;7.30;99.90;;;;;;5113426;28;20185;-54
2023/01/09 04:33:05;;;;;;;9.00;2.78;;;7.40;99.90;;;;;;5113499;28;20180;-53
2023/01/09 04:35:31;;;;;;;4.68;1.65;;;7.30;99.90;;;;;;5113385;28;20630;-52
2023/01/09 04:37:58;;;;;;;8.07;1.90;;;7.40;99.90;;;;;;5113441;28;20177;-54
2023/01/09 04:40:23;;;;;;;7.07;1.77;;;7.40;99.90;;;;;;5113397;28;20272;-51
2023/01/09 04:42:49;;;;;;;12.25;2.15;;;7.40;99.90;;;;;;5113402;28;20208;-50
2023/01/09 04:45:16;;;;;;;5.25;1.88;;;7.40;99.90;;;;;;5113579;28;20212;-54
2023/01/09 04:47:45;;;;;;;9.70;2.60;;;7.40;99.90;;;;;;5113528;28;20649;-53
2023/01/09 04:50:11;;;;;;;6.70;2.08;;;7.50;99.90;;;;;;5113440;28;20173;-53
2023/01/09 04:52:40;;;;;;;8.75;2.70;;;7.50;99.90;;;;;;5113383;28;20545;-52
2023/01/09 04:55:09;;;;;;;11.02;2.78;;;7.50;99.90;;;;;;5113311;28;20169;-51
2023/01/09 04:57:42;;;;;;;4.80;1.98;;;7.60;99.90;;;;;;5113321;28;20271;-53
2023/01/09 05:00:10;;;;;;;12.15;2.97;;;7.60;99.90;;;;;;5113568;28;20185;-52
2023/01/09 05:02:37;;;;;;;7.55;2.28;;;7.60;99.90;;;;;;5113308;28;20185;-54
2023/01/09 05:05:03;;;;;;;7.22;2.28;;;7.60;99.90;;;;;;5113291;28;20255;-52
2023/01/09 05:07:32;;;;;;;9.32;2.20;;;7.70;99.90;;;;;;5113229;28;20184;-53
2023/01/09 05:09:57;;;;;;;8.07;2.50;;;7.60;99.90;;;;;;5113013;28;20587;-52
2023/01/09 05:12:23;;;;;;;7.10;2.58;;;7.70;99.90;;;;;;5112859;28;20169;-54
2023/01/09 05:14:49;;;;;;;9.18;2.35;;;7.80;99.90;;;;;;5113154;28;20185;-51
2023/01/09 05:17:14;;;;;;;10.38;3.08;;;7.80;99.90;;;;;;5113146;28;20218;-54
2023/01/09 05:19:41;;;;;;;8.15;2.30;;;7.80;99.90;;;;;;5113431;28;20267;-51
2023/01/09 05:22:07;;;;;;;5.90;2.33;;;7.80;99.90;;;;;;5116825;28;20180;-53
2023/01/09 05:24:33;;;;;;;9.95;3.10;;;7.80;99.90;;;;;;5116657;28;20176;-53
2023/01/09 05:27:01;;;;;;;7.18;2.47;;;7.80;99.90;;;;;;5117032;28;20192;-53
2023/01/09 05:29:30;;;;;;;8.27;2.13;;;7.80;99.90;;;;;;5116793;28;20204;-53
2023/01/09 05:31:56;;;;;;;5.90;2.50;;;7.70;99.90;;;;;;5116416;28;20234;-52
2023/01/09 05:34:25;;;;;;;7.85;2.55;;;7.70;99.90;;;;;;5116526;28;20174;-53
2023/01/09 05:36:53;;;;;;;5.97;2.63;;;7.70;99.90;;;;;;5116233;28;20268;-53
2023/01/09 05:39:19;;;;;;;8.88;2.80;;;7.80;99.90;;;;;;5116325;28;20616;-51
2023/01/09 05:41:48;;;;;;;8.73;2.97;;;7.70;99.90;;;;;;5116573;28;20176;-50
2023/01/09 05:44:17;;;;;;;6.15;2.58;;;7.80;99.90;;;;;;5116395;28;20269;-52
2023/01/09 05:46:42;;;;;;;7.88;2.72;;;7.60;99.90;;;;;;5116324;28;20219;-50
2023/01/09 05:49:08;;;;;;;10.45;2.55;;;7.70;99.90;;;;;;5116256;28;20177;-52
2023/01/09 05:51:38;;;;;;;6.68;2.45;;;7.70;99.90;;;;;;5115916;28;20259;-55
2023/01/09 05:54:06;;;;;;;7.80;3.30;;;7.70;99.90;;;;;;5116109;28;20172;-54
2023/01/09 05:56:34;;;;;;;10.13;3.05;;;7.80;99.90;;;;;;5116218;28;20192;-50
2023/01/09 05:59:00;;;;;;;7.38;2.35;;;7.80;99.90;;;;;;5114998;28;20208;-53
2023/01/09 06:01:26;;;;;;;8.80;3.30;;;7.80;99.90;;;;;;5114583;28;20213;-51
2023/01/09 06:03:51;;;;;;;7.50;3.25;;;7.80;99.90;;;;;;5115908;28;20180;-51
2023/01/09 06:06:17;;;;;;;11.57;3.25;;;7.70;99.90;;;;;;5115712;28;20205;-51
2023/01/09 06:08:49;;;;;;;8.18;2.78;;;7.70;99.90;;;;;;5114698;28;20543;-51
2023/01/09 06:11:15;;;;;;;5.47;2.38;;;7.70;99.90;;;;;;5114625;28;20241;-53
2023/01/09 06:13:44;;;;;;;6.75;2.15;;;7.70;99.90;;;;;;5114648;28;20184;-54
2023/01/09 06:16:10;;;;;;;6.63;2.30;;;7.80;99.90;;;;;;5115464;28;20242;-56
2023/01/09 06:18:35;;;;;;;9.45;2.83;;;7.70;99.90;;;;;;5115691;28;20169;-56
2023/01/09 06:21:01;;;;;;;7.85;2.58;;;7.70;99.90;;;;;;5080528;28;20201;-54
2023/01/09 06:23:29;;;;;;;11.38;2.70;;;7.70;99.90;;;;;;5115785;28;20601;-54
2023/01/09 06:25:55;;;;;;;8.05;2.67;;;7.60;99.90;;;;;;5115643;28;20285;-55
2023/01/09 06:28:20;;;;;;;11.57;2.78;;;7.60;99.90;;;;;;5114712;28;20232;-55
2023/01/09 06:30:52;;;;;;;9.15;2.40;;;7.50;99.90;;;;;;5115265;28;20170;-57
2023/01/09 06:33:19;;;;;;;5.40;1.83;;;7.60;99.90;;;;;;5114275;28;20183;-54
2023/01/09 06:35:45;;;;;;;10.00;2.60;;;7.70;99.90;;;;;;5115293;28;20176;-54
2023/01/09 06:38:14;;;;;;;9.38;2.67;;;7.80;99.90;;;;;;5115514;28;20251;-54
2023/01/09 06:40:40;;;;;;;8.07;2.50;;;7.80;99.90;;;;;;5115589;28;20175;-53
2023/01/09 06:43:05;;;;;;;7.50;2.08;;;7.80;99.90;;;;;;5115370;28;20169;-54
2023/01/09 06:45:31;;;;;;;7.60;2.42;;;7.80;99.90;;;;;;5114916;28;20222;-54
2023/01/09 06:47:57;;;;;;;11.70;2.60;;;7.70;99.90;;;;;;5115039;28;20184;-54
2023/01/09 06:50:25;;;;;;;6.70;2.45;;;7.80;99.90;;;;;;5115462;28;20211;-54
2023/01/09 06:52:53;;;;;;;8.60;2.42;;;7.90;99.90;;;;;;5115110;28;20165;-54
2023/01/09 06:55:19;;;;;;;5.85;2.10;;;7.80;99.90;;;;;;5115050;28;20546;-53
2023/01/09 06:57:45;;;;;;;8.52;2.60;;;7.80;99.90;;;;;;5114949;28;20272;-53
2023/01/09 07:00:13;;;;;;;6.85;2.00;;;7.80;99.90;;;;;;5114872;28;20181;-53
2023/01/09 07:02:39;;;;;;;7.07;2.60;;;7.70;99.90;;;;;;5114689;28;20200;-53
2023/01/09 07:05:07;;;;;;;6.82;2.50;;;7.80;99.90;;;;;;5114859;28;20255;-55
2023/01/09 07:07:33;;;;;;;8.40;2.80;;;7.80;99.90;;;;;;5114875;27;20165;-54
2023/01/09 07:09:58;;;;;;;8.88;2.35;;;7.80;99.90;;;;;;5113532;28;20177;-56
2023/01/09 07:12:27;;;;;;;7.47;2.28;;;7.90;99.90;;;;;;5114683;28;20185;-56
2023/01/09 07:14:52;;;;;;;6.75;1.75;;;7.90;99.90;;;;;;5114661;28;20174;-53
2023/01/09 07:17:24;;;;;;;7.38;1.95;;;8.00;99.90;;;;;;5114593;28;20298;-56
2023/01/09 07:19:49;;;;;;;5.40;2.10;;;8.00;99.90;;;;;;5114670;28;20177;-56
2023/01/09 07:22:19;;;;;;;6.57;2.05;;;8.10;99.90;;;;;;5114606;28;20181;-53
2023/01/09 07:24:45;;;;;;;8.07;2.47;;;8.00;99.90;;;;;;5114386;28;20538;-56
2023/01/09 07:27:11;;;;;;;8.55;2.53;;;8.00;99.90;;;;;;5114448;28;20173;-52
2023/01/09 07:29:36;;;;;;;7.30;2.25;;;8.00;99.90;;;;;;5114244;28;20596;-56
2023/01/09 07:32:05;;;;;;;5.40;2.15;;;8.00;99.90;;;;;;5114517;28;20635;-53
2023/01/09 07:34:31;;;;;;;5.78;2.10;;;8.10;99.90;;;;;;5114437;28;20289;-54
2023/01/09 07:36:57;;;;;;;7.78;2.20;;;8.10;99.90;;;;;;5114352;28;20628;-54
2023/01/09 07:39:22;;;;;;;7.32;2.05;;;8.00;99.90;;;;;;5114190;28;20533;-53
2023/01/09 07:41:48;;;;;;;5.50;1.90;;;8.00;99.90;;;;;;5114491;28;20525;-54
2023/01/09 07:44:14;;;;;;;8.77;2.15;;;8.00;99.90;;;;;;5112820;28;20646;-51
2023/01/09 07:46:40;;;;;;;7.03;2.40;;;7.90;99.90;;;;;;5114147;28;20304;-53
2023/01/09 07:49:06;;;;;;;7.57;2.13;;;8.00;99.90;;;;;;5114179;28;20264;-53
2023/01/09 07:51:37;;;;;;;6.72;1.85;;;7.90;99.90;;;;;;5113854;28;20533;-54
2023/01/09 07:54:03;;;;;;;4.78;2.17;;;7.90;99.90;;;;;;5113635;28;20190;-54
2023/01/09 07:56:29;;;;;;;8.45;2.28;;;7.90;99.90;;;;;;5113949;28;20177;-53
2023/01/09 07:58:54;;;;;;;8.20;2.17;;;8.00;99.90;;;;;;5113791;28;20297;-56
2023/01/09 08:01:20;;;;;;;4.05;2.05;;;7.90;99.90;;;;;;5113918;28;20233;-54
2023/01/09 08:03:46;;;;;;;4.85;2.30;;;7.90;99.90;;;;;;5113916;28;20193;-55
2023/01/09 08:06:12;;;;;;;6.57;2.55;;;7.90;99.90;;;;;;5113842;28;20209;-53
2023/01/09 08:08:50;;;;;;;6.82;2.33;;;7.90;99.90;;;;;;5113775;28;20534;-55
2023/01/09 08:11:16;;;;;;;4.63;1.83;;;7.90;99.90;;;;;;5113822;28;20634;-53
2023/01/09 08:13:42;;;;;;;7.18;2.60;;;8.00;99.90;;;;;;5113848;28;20172;-56
2023/01/09 08:16:07;;;;;;;5.07;2.30;;;8.00;99.90;;;;;;5113852;28;20180;-53
2023/01/09 08:18:33;;;;;;;7.22;1.90;;;7.90;99.90;;;;;;5113787;28;20256;-56
2023/01/09 08:20:59;;;;;;;6.15;2.33;;;8.00;99.90;;;;;;5113705;28;20700;-56
2023/01/09 08:23:25;;;;;;;5.38;2.15;;;8.00;99.90;;;;;;5113475;28;20191;-53
2023/01/09 08:25:52;;;;;;;6.90;2.08;;;8.00;99.90;;;;;;5113413;28;20254;-53
2023/01/09 08:28:18;;;;;;;6.32;2.03;;;8.10;99.90;;;;;;5113775;28;20173;-54
2023/01/09 08:30:49;;;;;;;5.50;1.98;;;8.10;99.90;;;;;;5113171;28;20190;-55
2023/01/09 08:33:15;;;;;;;5.07;1.73;;;8.10;99.90;;;;;;5113629;28;20271;-55
2023/01/09 08:35:45;;;;;;;5.65;1.98;;;8.00;99.90;;;;;;5113616;28;20268;-55
2023/01/09 08:38:15;;;;;;;7.43;2.30;;;8.00;99.90;;;;;;5113868;28;20185;-52
2023/01/09 08:40:46;;;;;;;6.90;2.60;;;8.10;99.90;;;;;;5113151;28;20587;-53
2023/01/09 08:48:42;;;;;;;5.50;2.60;;;8.20;99.90;;;;;;5113783;28;20184;-55
2023/01/09 08:51:09;;;;;;;7.57;2.30;;;8.20;99.90;;;;;;5113302;28;20649;-55
2023/01/09 08:53:35;;;;;;;8.05;2.00;;;8.30;99.90;;;;;;5113498;28;20252;-54
2023/01/09 08:56:02;;;;;;;7.28;2.28;;;8.20;99.90;;;;;;5116112;28;20634;-53
2023/01/09 08:58:29;;;;;;;5.47;2.47;;;8.10;99.90;;;;;;5117350;28;20567;-53
2023/01/09 09:00:54;;;;;;;6.57;2.35;;;8.10;99.90;;;;;;5117200;28;20538;-55
2023/01/09 09:03:20;;;;;;;5.43;1.92;;;8.00;99.90;;;;;;5117154;28;20169;-52
2023/01/09 09:05:46;;;;;;;5.88;2.60;;;8.10;99.90;;;;;;5116998;28;20664;-57
2023/01/09 09:08:12;;;;;;;4.70;1.88;;;8.20;99.90;;;;;;5117075;28;20174;-53
2023/01/09 09:10:37;;;;;;;7.55;2.30;;;8.20;99.90;;;;;;5117105;28;20174;-52
2023/01/09 09:13:03;;;;;;;7.35;2.05;;;8.10;99.90;;;;;;5117087;28;20205;-55
2023/01/09 09:15:29;;;;;;;4.75;2.17;;;8.10;99.90;;;;;;5117038;28;20181;-52
2023/01/09 09:18:02;;;;;;;5.13;1.95;;;7.90;99.90;;;;;;5116847;28;20182;-53
2023/01/09 09:20:31;;;;;;;5.25;1.90;;;8.00;99.90;;;;;;5117090;28;20525;-53
2023/01/09 09:22:57;;;;;;;4.82;2.20;;;8.00;99.90;;;;;;5116922;28;20169;-53
2023/01/09 09:25:23;;;;;;;5.35;2.22;;;7.90;99.90;;;;;;5116899;28;20221;-54
2023/01/09 09:27:49;;;;;;;5.40;2.20;;;8.00;99.90;;;;;;5116659;28;20169;-51
2023/01/09 09:30:17;;;;;;;4.13;2.03;;;8.00;99.90;;;;;;5116698;28;20177;-53
2023/01/09 09:32:43;;;;;;;4.82;1.80;;;8.00;99.90;;;;;;5116549;28;20166;-53
2023/01/09 09:35:10;;;;;;;3.95;1.77;;;8.00;99.90;;;;;;5116766;28;20192;-53
2023/01/09 09:37:37;;;;;;;3.47;1.60;;;8.00;99.90;;;;;;5116718;28;20503;-51
2023/01/09 09:40:04;;;;;;;3.42;1.70;;;8.10;99.90;;;;;;5116521;28;20173;-51
2023/01/09 09:45:38;;;;;;;7.75;1.60;;;8.00;99.90;;;;;;5116579;28;20227;-52
2023/01/09 09:48:25;;;;;;;4.63;1.70;;;8.10;99.90;;;;;;5116462;28;20303;-53
2023/01/09 09:51:03;;;;;;;4.28;1.50;;;8.20;99.90;;;;;;5115099;28;20642;-54
2023/01/09 09:53:40;;;;;;;4.47;1.67;;;8.20;99.90;;;;;;5116363;28;20192;-53
2023/01/09 09:56:17;;;;;;;4.90;1.90;;;8.30;99.90;;;;;;5116347;28;20173;-53
2023/01/09 09:58:56;;;;;;;4.78;1.90;;;8.40;99.90;;;;;;5116119;28;20180;-53
2023/01/09 10:01:26;;;;;;;5.13;1.67;;;8.30;99.90;;;;;;5116231;28;20241;-56
2023/01/09 10:03:55;;;;;;;4.35;1.70;;;8.50;99.90;;;;;;5115980;28;20165;-55
2023/01/09 10:06:29;;;;;;;3.92;1.67;;;8.50;99.90;;;;;;5115153;28;20212;-54
2023/01/09 10:08:55;;;;;;;5.97;1.80;;;8.60;99.90;;;;;;5116058;28;20169;-55
2023/01/09 10:11:29;;;;;;;4.18;2.08;;;8.60;99.90;;;;;;5115840;28;20183;-54
2023/01/09 10:14:04;;;;;;;5.03;1.70;;;8.60;99.90;;;;;;5115996;28;20162;-54
2023/01/09 10:16:39;;;;;;;4.25;2.00;;;8.60;99.90;;;;;;5115769;28;20552;-55
2023/01/09 10:19:18;;;;;;;4.53;1.80;;;8.60;99.90;;;;;;5115988;28;20165;-54
2023/01/09 10:22:14;;;;;;;4.70;1.90;;;8.50;99.90;;;;;;5115795;28;20165;-55
2023/01/09 10:24:57;;;;;;;6.38;2.00;;;8.50;99.90;;;;;;5115525;28;20174;-57
2023/01/09 10:27:26;;;;;;;5.13;2.20;;;8.60;99.90;;;;;;5115812;28;20176;-55
2023/01/09 10:29:59;;;;;;;7.32;2.10;;;8.50;99.90;;;;;;5115546;28;20169;-54
2023/01/09 10:32:40;;;;;;;4.90;1.70;;;8.60;99.90;;;;;;5115568;28;20193;-55
2023/01/09 10:35:09;;;;;;;6.13;2.05;;;8.70;99.90;;;;;;5115426;28;20165;-54
2023/01/09 10:37:45;;;;;;;5.38;2.10;;;8.70;99.90;;;;;;5115564;28;20174;-55
2023/01/09 10:40:26;;;;;;;4.93;2.00;;;8.80;99.90;;;;;;5115371;28;20638;-55
2023/01/09 10:42:51;;;;;;;7.30;1.95;;;8.80;99.90;;;;;;5115315;28;20189;-55
2023/01/09 10:45:33;;;;;;;6.28;2.22;;;9.00;99.90;;;;;;5113972;28;20280;-55
2023/01/09 10:48:04;;;;;;;6.75;2.10;;;9.10;99.90;;;;;;5115483;28;20248;-55
2023/01/09 10:50:34;;;;;;;5.32;2.50;;;9.20;99.90;;;;;;5115407;28;20637;-54
2023/01/09 10:53:13;;;;;;;6.72;2.45;;;9.30;99.90;;;;;;5115129;28;20169;-55
2023/01/09 10:55:48;;;;;;;5.15;2.05;;;9.30;99.90;;;;;;5115089;28;20210;-54
2023/01/09 10:58:17;;;;;;;7.55;2.38;;;9.30;99.90;;;;;;5114942;28;20526;-55
2023/01/09 11:00:44;;;;;;;7.15;2.60;;;9.20;99.90;;;;;;5115057;28;20522;-55
2023/01/09 11:03:18;;;;;;;4.25;2.20;;;9.20;99.90;;;;;;5114875;28;20181;-57
2023/01/09 11:05:49;;;;;;;6.35;2.25;;;9.20;99.90;;;;;;5114829;28;20740;-54
2023/01/09 11:08:41;;;;;;;6.22;2.38;;;9.20;99.90;;;;;;5114747;28;20170;-56
2023/01/09 11:11:08;;;;;;;9.15;2.92;;;9.40;99.90;;;;;;5114769;28;20231;-54
2023/01/09 11:13:37;;;;;;;6.10;2.63;;;9.60;99.90;;;;;;5114687;28;20533;-54
2023/01/09 11:16:15;;;;;;;5.82;2.17;;;9.70;99.90;;;;;;5113380;28;20215;-55
2023/01/09 11:18:52;;;;;;;5.60;2.45;;;9.70;99.90;;;;;;5114323;28;20523;-56
2023/01/09 11:21:44;;;;;;;6.05;2.00;;;9.80;99.90;;;;;;5114756;28;20172;-54
2023/01/09 11:24:22;;;;;;;8.35;2.70;;;9.80;99.90;;;;;;5111259;28;20192;-57
2023/01/09 11:26:51;;;;;;;7.38;2.38;;;9.70;99.90;;;;;;5113778;28;20310;-56
2023/01/09 11:29:23;;;;;;;4.32;2.20;;;9.70;99.90;;;;;;5113812;28;20255;-55
2023/01/09 11:32:00;;;;;;;6.28;2.30;;;9.70;99.90;;;;;;5113953;28;20177;-53
2023/01/09 11:34:35;;;;;;;6.93;2.83;;;9.50;99.90;;;;;;5113826;28;20226;-52
2023/01/09 11:37:12;;;;;;;7.45;2.50;;;9.60;99.90;;;;;;5113676;28;20165;-52
2023/01/09 11:39:44;;;;;;;6.72;2.92;;;9.50;99.90;;;;;;5113583;28;20199;-54
2023/01/09 11:45:18;;;;;;;6.20;2.40;;;9.60;99.90;;;;;;5113540;28;20219;-53
2023/01/09 11:47:44;;;;;;;5.82;2.42;;;9.60;99.90;;;;;;5113463;28;20619;-54
2023/01/09 11:50:23;;;;;;;7.80;2.58;;;9.60;99.90;;;;;;5113413;28;20180;-56
2023/01/09 11:53:18;;;;;;;7.90;2.58;;;9.40;99.90;;;;;;5113583;28;20299;-57
2023/01/09 11:55:46;;;;;;;6.93;2.58;;;9.40;99.90;;;;;;5113371;28;20218;-53
2023/01/09 11:58:15;;;;;;;7.65;2.95;;;9.30;99.90;;;;;;5113342;28;20169;-56
2023/01/09 12:01:02;;;;;;;6.82;2.90;;;9.40;99.90;;;;;;5113272;28;20543;-54
2023/01/09 12:03:33;;;;;;;5.82;2.72;;;9.60;99.90;;;;;;5113572;28;20162;-55
2023/01/09 12:06:14;;;;;;;6.32;3.05;;;9.80;99.90;;;;;;5113132;28;20563;-54
2023/01/09 12:08:58;;;;;;;7.50;3.33;;;9.80;99.90;;;;;;5113227;28;20169;-54
2023/01/09 12:11:33;;;;;;;6.05;2.88;;;9.90;99.90;;;;;;5113338;28;20177;-54
2023/01/09 12:14:22;;;;;;;6.93;3.53;;;9.90;99.90;;;;;;5113381;28;20165;-54
2023/01/09 12:17:13;;;;;;;8.30;3.60;;;10.10;99.90;;;;;;5113289;28;20177;-54
2023/01/09 12:20:00;;;;;;;5.63;3.10;;;10.20;99.90;;;;;;5113112;28;20541;-54
2023/01/09 12:22:35;;;;;;;8.82;4.35;;;10.20;99.90;;;;;;5113262;28;20161;-54
2023/01/09 12:25:18;;;;;;;9.57;4.20;;;10.20;99.90;;;;;;5112981;28;20681;-55
2023/01/09 12:27:53;;;;;;;9.07;3.55;;;9.90;99.90;;;;;;5112965;28;20496;-55
2023/01/09 12:30:30;;;;;;;10.30;3.50;;;9.80;99.90;;;;;;5115256;28;20169;-55
2023/01/09 12:33:07;;;;;;;10.60;3.60;;;9.80;99.90;;;;;;5117385;28;20175;-55
2023/01/09 12:35:37;;;;;;;7.72;4.20;;;9.80;99.90;;;;;;5117177;28;20755;-55
2023/01/09 12:38:14;;;;;;;8.70;3.92;;;9.90;99.90;;;;;;5117018;28;20193;-55
2023/01/09 12:41:08;;;;;;;7.90;3.60;;;9.90;99.90;;;;;;5117312;28;20180;-55
2023/01/09 12:44:27;;;;;;;8.95;3.75;;;10.00;99.90;;;;;;5117034;28;20260;-55
2023/01/09 12:47:16;;;;;;;9.80;3.95;;;9.80;99.90;;;;;;5053990;28;20218;-54
2023/01/09 12:49:56;;;;;;;9.10;3.92;;;9.90;99.90;;;;;;5113781;28;20178;-54
2023/01/09 12:52:27;;;;;;;10.95;3.90;;;10.00;99.90;;;;;;5116825;28;20522;-57
2023/01/09 12:55:04;;;;;;;10.48;3.80;;;9.80;99.90;;;;;;5116760;28;20197;-55
2023/01/09 12:57:41;;;;;;;8.90;4.68;;;9.80;99.90;;;;;;5116997;28;20169;-56
2023/01/09 13:00:17;;;;;;;9.43;4.50;;;9.70;99.90;;;;;;5116767;28;20259;-55
2023/01/09 13:03:09;;;;;;;9.85;4.60;;;9.70;99.90;;;;;;5116801;28;20161;-55
2023/01/09 13:06:01;;;;;;;8.52;3.70;;;9.80;99.90;;;;;;5116492;28;20261;-56
2023/01/09 13:08:37;;;;;;;11.77;4.93;;;9.90;99.90;;;;;;5113707;28;20216;-55
2023/01/09 13:11:14;;;;;;;13.65;4.25;;;9.90;99.90;;;;;;5116572;28;20218;-54
2023/01/09 13:13:53;;;;;;;9.38;4.45;;;9.90;99.90;;;;;;5116410;28;20640;-55
2023/01/09 13:16:35;;;;;;;11.43;5.07;;;10.00;99.90;;;;;;5116597;28;20173;-55
2023/01/09 13:19:13;;;;;;;10.85;4.70;;;10.20;99.90;;;;;;5116533;28;20226;-56
2023/01/09 13:21:40;;;;;;;11.48;4.93;;;10.20;99.90;;;;;;5116356;28;20173;-56
2023/01/09 13:24:27;;;;;;;9.88;4.95;;;10.20;99.90;;;;;;5116462;28;20166;-56
2023/01/09 13:26:58;;;;;;;13.15;5.20;;;10.30;99.90;;;;;;5116398;28;20201;-55
2023/01/09 13:29:29;;;;;;;12.68;4.75;;;10.30;99.90;;;;;;5116297;28;20248;-54
2023/01/09 13:32:07;;;;;;;9.40;4.53;;;10.10;99.90;;;;;;5116233;28;20696;-55